Time;durP1;ratioP1;P1;durP2;ratioP2;P2;SDS_P1;SDS_P2;PMS_P1;PMS_P2;Temp;Humidity;BMP_temperature;BMP_pressure;BME280_temperature;BME280_humidity;BME280_pressure;Samples;Min_cycle;Max_cycle;Signal;HPM_P1;HPM_P2
2022/10/15 00:00:28;;;;;;;13.13;8.38;;;;;;;7.09;71.04;99844.88;5118900;27;20220;-60
2022/10/15 00:03:03;;;;;;;12.35;7.72;;;;;;;7.12;71.27;99853.22;5125032;27;20129;-58
2022/10/15 00:05:40;;;;;;;11.88;7.70;;;;;;;7.08;71.04;99846.72;5113959;27;20217;-60
2022/10/15 00:08:16;;;;;;;10.40;7.28;;;;;;;7.13;71.19;99851.41;5125050;27;20231;-59
2022/10/15 00:10:51;;;;;;;13.43;8.07;;;;;;;7.13;71.41;99860.09;5098755;27;20130;-58
2022/10/15 00:13:26;;;;;;;15.30;8.32;;;;;;;7.11;71.24;99853.41;5121700;27;20133;-59
2022/10/15 00:16:01;;;;;;;12.82;8.18;;;;;;;7.14;71.35;99856.44;5114396;27;20134;-59
2022/10/15 00:18:36;;;;;;;13.60;8.10;;;;;;;7.14;71.30;99860.91;5125096;27;20132;-59
2022/10/15 00:21:13;;;;;;;13.20;8.88;;;;;;;7.12;71.21;99849.75;5113086;27;20504;-58
2022/10/15 00:23:49;;;;;;;13.77;7.65;;;;;;;7.15;71.16;99858.09;5124969;27;20586;-59
2022/10/15 00:26:26;;;;;;;13.77;7.60;;;;;;;7.14;71.27;99858.28;5093991;27;20138;-58
2022/10/15 00:29:03;;;;;;;14.20;7.95;;;;;;;7.16;71.29;99858.91;5125009;27;20128;-58
2022/10/15 00:31:39;;;;;;;11.95;7.55;;;;;;;7.20;70.89;99853.00;5109110;27;20508;-58
2022/10/15 00:34:14;;;;;;;12.88;7.57;;;;;;;7.19;70.95;99850.56;5125094;27;20136;-59
2022/10/15 00:36:49;;;;;;;11.13;7.22;;;;;;;7.14;70.70;99853.00;5107537;27;20137;-58
2022/10/15 00:39:25;;;;;;;10.93;7.22;;;;;;;7.21;70.57;99857.28;5124991;27;20590;-59
2022/10/15 00:42:00;;;;;;;12.30;7.15;;;;;;;7.21;70.58;99849.38;5105906;27;20129;-58
2022/10/15 00:44:52;;;;;;;15.43;6.65;;;;;;;7.25;70.67;99853.19;5125057;27;20616;-59
2022/10/15 00:47:38;;;;;;;11.25;6.13;;;;;;;7.17;70.56;99860.50;5125125;27;20597;-58
2022/10/15 00:50:24;;;;;;;10.50;6.90;;;;;;;7.15;70.51;99858.09;5117396;27;20134;-58
2022/10/15 00:53:05;;;;;;;12.38;7.95;;;;;;;7.15;70.40;99849.38;5141389;27;20394;-59
2022/10/15 00:55:41;;;;;;;9.68;7.15;;;;;;;7.16;70.42;99848.34;5117260;27;20138;-58
2022/10/15 00:58:26;;;;;;;9.20;6.75;;;;;;;7.15;70.75;99855.47;5125015;27;20148;-59
2022/10/15 01:01:04;;;;;;;13.35;6.78;;;;;;;7.11;70.64;99858.69;5121581;27;20217;-60
2022/10/15 01:03:40;;;;;;;11.13;7.18;;;;;;;7.07;70.97;99863.56;5124979;27;20133;-60
2022/10/15 01:06:16;;;;;;;9.82;6.72;;;;;;;7.07;70.89;99868.03;5112111;27;20591;-61
2022/10/15 01:08:51;;;;;;;9.70;6.72;;;;;;;7.05;70.96;99857.66;5125011;27;20125;-59
2022/10/15 01:11:54;;;;;;;8.63;6.05;;;;;;;7.05;70.31;99855.84;5110836;27;20133;-59
2022/10/15 01:14:55;;;;;;;10.90;5.90;;;;;;;7.11;70.08;99858.69;5125109;27;20137;-58
2022/10/15 01:17:41;;;;;;;7.55;5.57;;;;;;;7.13;69.96;99860.09;5142526;27;20140;-58
2022/10/15 01:20:50;;;;;;;8.15;5.38;;;;;;;7.00;69.78;99865.38;5120380;27;20187;-59
2022/10/15 01:24:18;;;;;;;8.15;6.07;;;;;;;6.96;70.58;99853.63;5125066;27;20147;-59
2022/10/15 01:27:02;;;;;;;12.20;6.63;;;;;;;6.98;70.58;99867.41;5106886;27;20134;-59
2022/10/15 01:29:38;;;;;;;10.07;5.97;;;;;;;6.98;70.63;99864.78;5125002;27;20133;-58
2022/10/15 01:32:27;;;;;;;9.63;6.20;;;;;;;6.99;70.70;99871.66;5125056;27;20132;-58
2022/10/15 01:35:13;;;;;;;10.73;6.40;;;;;;;6.98;70.43;99859.50;5125053;27;20598;-58
2022/10/15 01:38:02;;;;;;;11.88;6.60;;;;;;;6.98;70.49;99864.78;5125112;27;20133;-58
2022/10/15 01:40:49;;;;;;;8.55;5.70;;;;;;;7.01;70.35;99867.81;5117944;27;20137;-59
2022/10/15 01:43:39;;;;;;;10.35;6.22;;;;;;;6.99;70.11;99869.03;5121486;27;20554;-59
2022/10/15 01:46:47;;;;;;;9.90;5.80;;;;;;;6.97;70.36;99869.25;5108066;27;20137;-60
2022/10/15 01:49:32;;;;;;;10.75;6.65;;;;;;;6.99;70.55;99875.09;5166840;27;132063;-59
2022/10/15 01:52:16;;;;;;;8.73;5.95;;;;;;;6.95;70.73;99870.44;5142324;27;20514;-58
2022/10/15 01:54:52;;;;;;;9.18;6.63;;;;;;;6.90;70.11;99862.31;5124894;27;20129;-59
2022/10/15 01:57:31;;;;;;;10.75;6.05;;;;;;;6.92;69.77;99863.75;5107814;27;20133;-59
2022/10/15 02:00:07;;;;;;;9.00;5.68;;;;;;;6.88;69.62;99867.78;5163658;27;135521;-60
2022/10/15 02:02:49;;;;;;;9.07;6.00;;;;;;;6.94;70.24;99874.91;5124996;27;20136;-60
2022/10/15 02:05:48;;;;;;;10.25;6.00;;;;;;;6.98;69.86;99877.97;5119430;27;20133;-59
2022/10/15 02:08:32;;;;;;;9.55;6.00;;;;;;;6.99;69.87;99875.09;5142152;27;20141;-60
2022/10/15 02:11:12;;;;;;;10.90;6.03;;;;;;;6.97;69.44;99863.97;5113554;27;20133;-58
2022/10/15 02:14:07;;;;;;;10.57;6.47;;;;;;;7.07;69.96;99876.75;5124862;27;20125;-59
2022/10/15 02:16:58;;;;;;;10.95;6.32;;;;;;;7.11;69.96;99883.22;5124978;27;20098;-59
2022/10/15 02:19:42;;;;;;;7.28;5.68;;;;;;;7.07;69.54;99889.91;5142394;27;20502;-59
2022/10/15 02:22:18;;;;;;;9.75;6.03;;;;;;;6.96;69.77;99877.34;5142502;27;20133;-59
2022/10/15 02:24:57;;;;;;;10.30;6.18;;;;;;;7.01;69.84;99885.47;5124945;27;20129;-59
2022/10/15 02:27:33;;;;;;;9.25;5.97;;;;;;;6.99;69.45;99888.28;5124886;27;20133;-58
2022/10/15 02:30:10;;;;;;;9.18;5.82;;;;;;;7.01;69.49;99890.72;5142076;27;20156;-59
2022/10/15 02:32:55;;;;;;;10.80;6.50;;;;;;;6.99;69.91;99890.91;5125224;27;20136;-59
2022/10/15 02:35:31;;;;;;;10.32;6.65;;;;;;;7.00;70.34;99891.72;5118657;27;20519;-59
2022/10/15 02:38:08;;;;;;;12.40;7.15;;;;;;;7.01;70.65;99893.38;5142569;27;20128;-59
2022/10/15 02:40:44;;;;;;;10.20;6.72;;;;;;;7.03;70.32;99893.97;5116678;27;20130;-58
2022/10/15 02:43:21;;;;;;;12.13;6.82;;;;;;;7.04;70.36;99898.22;5121734;27;20487;-59
2022/10/15 02:45:56;;;;;;;10.48;6.63;;;;;;;7.05;70.38;99897.22;5114874;27;20133;-60
2022/10/15 02:48:32;;;;;;;13.63;7.03;;;;;;;7.05;70.50;99900.66;5124966;27;20129;-60
2022/10/15 02:51:07;;;;;;;10.10;6.45;;;;;;;7.07;70.17;99905.75;5113433;27;20559;-59
2022/10/15 02:53:41;;;;;;;11.75;6.75;;;;;;;7.07;70.19;99907.56;5142061;27;20133;-58
2022/10/15 02:56:17;;;;;;;9.77;6.40;;;;;;;7.09;70.20;99903.72;5129105;27;20129;-59
2022/10/15 02:58:53;;;;;;;12.38;7.43;;;;;;;7.07;70.30;99900.47;5124839;27;20133;-60
2022/10/15 03:01:30;;;;;;;10.35;6.70;;;;;;;7.09;70.55;99900.25;5110438;27;20507;-59
2022/10/15 03:04:06;;;;;;;10.57;6.78;;;;;;;7.12;70.30;99910.38;5121984;27;20141;-58
2022/10/15 03:06:43;;;;;;;13.98;7.25;;;;;;;7.07;70.38;99903.09;5108375;27;20137;-59
2022/10/15 03:09:20;;;;;;;10.07;6.70;;;;;;;7.03;70.67;99910.59;5142592;27;20155;-59
2022/10/15 03:11:56;;;;;;;9.15;6.55;;;;;;;6.95;71.00;99899.44;5106818;27;20141;-58
2022/10/15 03:14:33;;;;;;;13.70;7.00;;;;;;;6.96;70.94;99908.97;5125138;27;20129;-58
2022/10/15 03:17:09;;;;;;;13.43;7.35;;;;;;;6.95;71.22;99910.78;5105011;27;20134;-59
2022/10/15 03:19:44;;;;;;;12.52;6.72;;;;;;;6.94;70.99;99903.91;5104580;27;20595;-59
2022/10/15 03:22:19;;;;;;;11.25;7.18;;;;;;;6.98;71.19;99907.75;5125137;27;20129;-59
2022/10/15 03:24:59;;;;;;;9.45;6.63;;;;;;;7.02;70.70;99906.31;5125407;27;20136;-60
2022/10/15 03:27:36;;;;;;;12.20;6.70;;;;;;;7.01;70.70;99902.09;5125415;27;20129;-60
2022/10/15 03:30:20;;;;;;;9.90;6.57;;;;;;;7.03;70.86;99913.25;5120201;27;20221;-60
2022/10/15 03:32:55;;;;;;;12.43;6.45;;;;;;;7.03;70.89;99913.25;5125122;27;20129;-59
2022/10/15 03:35:32;;;;;;;12.13;6.40;;;;;;;7.00;70.65;99905.75;5118562;27;20133;-59
2022/10/15 03:38:08;;;;;;;11.00;6.50;;;;;;;6.98;71.11;99910.38;5125048;27;20594;-58
2022/10/15 03:40:44;;;;;;;10.93;6.38;;;;;;;6.99;70.94;99911.19;5116526;27;20130;-59
2022/10/15 03:43:27;;;;;;;10.07;7.28;;;;;;;6.99;70.73;99909.38;5142326;27;20136;-59
2022/10/15 03:46:04;;;;;;;8.23;5.70;;;;;;;7.01;70.03;99906.53;5131340;27;20223;-60
2022/10/15 03:48:43;;;;;;;9.40;6.28;;;;;;;7.00;70.36;99910.16;5142578;27;20514;-59
2022/10/15 03:51:21;;;;;;;10.57;5.97;;;;;;;7.00;70.37;99913.66;5111744;27;20480;-59
2022/10/15 03:53:59;;;;;;;9.23;5.70;;;;;;;6.99;69.88;99912.00;5125101;27;20618;-59
2022/10/15 03:56:35;;;;;;;11.93;6.25;;;;;;;7.00;70.61;99916.28;5106274;27;20134;-59
2022/10/15 03:59:31;;;;;;;9.75;5.97;;;;;;;7.05;69.83;99913.84;5141966;27;20082;-59
2022/10/15 04:02:10;;;;;;;9.70;5.82;;;;;;;7.04;69.98;99921.97;5104706;27;20134;-58
2022/10/15 04:04:45;;;;;;;8.23;6.00;;;;;;;7.08;69.83;99919.72;5125133;27;20510;-59
2022/10/15 04:07:22;;;;;;;7.50;5.65;;;;;;;7.09;69.86;99921.34;5125234;27;20129;-58
2022/10/15 04:09:59;;;;;;;10.35;6.32;;;;;;;7.05;70.16;99913.84;5125223;27;20129;-58
2022/10/15 04:12:45;;;;;;;11.43;6.63;;;;;;;7.06;69.84;99922.56;5121439;27;20126;-59
2022/10/15 04:15:26;;;;;;;8.95;6.07;;;;;;;7.08;70.15;99925.00;5118700;27;20149;-59
2022/10/15 04:18:06;;;;;;;8.90;6.22;;;;;;;7.08;70.20;99925.00;5116132;27;20133;-59
2022/10/15 04:20:42;;;;;;;7.32;5.60;;;;;;;7.14;69.79;99919.72;5105732;27;20135;-59
2022/10/15 04:23:30;;;;;;;9.48;6.28;;;;;;;7.17;69.88;99921.16;5125177;27;20140;-60
2022/10/15 04:26:24;;;;;;;12.73;6.40;;;;;;;7.18;69.70;99928.06;5110802;27;20138;-61
2022/10/15 04:28:59;;;;;;;10.68;5.95;;;;;;;7.04;69.67;99927.22;5142396;27;20128;-61
2022/10/15 04:31:36;;;;;;;9.60;5.60;;;;;;;7.09;69.64;99926.59;5126563;27;20594;-61
2022/10/15 04:34:13;;;;;;;11.75;5.75;;;;;;;7.07;69.76;99928.66;5124750;27;20140;-60
2022/10/15 04:36:48;;;;;;;11.15;6.10;;;;;;;7.05;69.73;99926.22;5100329;27;20129;-60
2022/10/15 04:39:29;;;;;;;10.40;6.03;;;;;;;7.06;69.56;99933.13;5116337;27;20137;-59
2022/10/15 04:42:04;;;;;;;9.00;5.32;;;;;;;7.11;69.64;99928.03;5104345;27;20468;-59
2022/10/15 04:44:42;;;;;;;7.95;5.50;;;;;;;7.05;69.70;99929.66;5125005;27;20358;-60
2022/10/15 04:47:19;;;;;;;8.88;6.38;;;;;;;7.11;69.10;99929.88;5125120;27;20133;-59
2022/10/15 04:50:00;;;;;;;9.90;5.90;;;;;;;7.12;69.33;99931.47;5124989;27;20141;-59
2022/10/15 04:52:58;;;;;;;8.57;6.18;;;;;;;7.17;69.27;99936.97;5142538;27;20510;-59
2022/10/15 04:55:36;;;;;;;9.13;5.55;;;;;;;7.15;69.04;99934.53;5118117;27;20499;-60
2022/10/15 04:58:11;;;;;;;9.05;5.85;;;;;;;7.17;68.78;99934.31;5125082;27;20264;-60
2022/10/15 05:00:46;;;;;;;9.82;5.32;;;;;;;7.20;68.62;99934.72;5116168;27;20133;-59
2022/10/15 05:03:38;;;;;;;7.15;4.60;;;;;;;7.23;68.47;99938.78;5124898;27;20133;-60
2022/10/15 05:06:19;;;;;;;8.73;4.97;;;;;;;7.16;69.00;99925.63;5112540;27;20133;-60
2022/10/15 05:08:55;;;;;;;8.25;5.40;;;;;;;7.27;68.53;99937.41;5125352;27;20518;-58
2022/10/15 05:11:36;;;;;;;9.68;5.07;;;;;;;7.24;68.74;99940.44;5109615;27;20137;-60
2022/10/15 05:14:18;;;;;;;9.20;5.43;;;;;;;7.25;68.59;99929.66;5142217;27;20128;-59
2022/10/15 05:17:14;;;;;;;12.45;5.18;;;;;;;7.35;67.49;99937.16;5141953;27;20547;-59
2022/10/15 05:19:52;;;;;;;11.13;5.88;;;;;;;7.40;67.26;99939.22;5125026;27;20128;-60
2022/10/15 05:22:32;;;;;;;7.93;5.07;;;;;;;7.36;66.82;99933.53;5125044;27;20595;-60
2022/10/15 05:25:10;;;;;;;9.75;5.10;;;;;;;7.48;66.71;99953.00;5125031;27;20140;-59
2022/10/15 05:27:46;;;;;;;5.80;4.53;;;;;;;7.48;67.03;99944.28;5124773;27;20148;-59
2022/10/15 05:30:21;;;;;;;9.80;5.07;;;;;;;7.54;66.60;99935.56;5120007;27;20591;-60
2022/10/15 05:33:00;;;;;;;9.18;4.85;;;;;;;7.59;66.17;99942.84;5125108;27;20506;-59
2022/10/15 05:35:35;;;;;;;7.82;5.18;;;;;;;7.65;65.80;99940.22;5135354;27;20129;-59
2022/10/15 05:38:11;;;;;;;7.90;5.05;;;;;;;7.67;66.05;99951.38;5125169;27;20136;-59
2022/10/15 05:40:48;;;;;;;8.98;5.80;;;;;;;7.73;65.98;99945.31;5133345;27;20372;-60
2022/10/15 05:43:28;;;;;;;8.80;5.35;;;;;;;7.83;65.41;99946.72;5125185;27;20370;-59
2022/10/15 05:46:06;;;;;;;7.50;5.07;;;;;;;7.82;65.14;99942.44;5113871;27;20520;-59
2022/10/15 05:48:41;;;;;;;5.93;4.70;;;;;;;7.73;65.36;99939.19;5124984;27;20132;-60
2022/10/15 05:51:18;;;;;;;7.75;5.32;;;;;;;7.82;65.49;99945.06;5111797;27;20133;-59
2022/10/15 05:53:56;;;;;;;9.45;5.28;;;;;;;7.82;65.22;99945.88;5142365;27;20124;-59
2022/10/15 05:56:32;;;;;;;10.55;5.43;;;;;;;7.90;65.07;99944.84;5110072;27;20134;-59
2022/10/15 05:59:07;;;;;;;13.05;6.00;;;;;;;7.93;63.72;99952.38;5084344;28;20130;-60
2022/10/15 06:01:42;;;;;;;9.27;5.40;;;;;;;7.96;64.11;99950.13;5125577;27;20595;-60
2022/10/15 06:04:17;;;;;;;11.50;5.50;;;;;;;7.97;64.33;99954.41;5125043;27;20129;-59
2022/10/15 06:06:52;;;;;;;11.82;5.60;;;;;;;8.01;63.60;99957.44;5107217;27;20130;-59
2022/10/15 06:09:27;;;;;;;12.07;5.45;;;;;;;8.06;64.42;99962.06;5125051;27;20525;-59
2022/10/15 06:12:02;;;;;;;9.50;5.35;;;;;;;8.04;63.38;99953.56;5105824;27;20141;-59
2022/10/15 06:14:39;;;;;;;15.95;6.80;;;;;;;8.10;63.83;99955.38;5125488;27;20129;-60
2022/10/15 06:17:15;;;;;;;16.60;5.50;;;;;;;8.11;62.00;99965.72;5125133;27;20132;-59
2022/10/15 06:19:57;;;;;;;10.48;5.90;;;;;;;8.11;62.89;99963.06;5125163;27;20232;-60
2022/10/15 06:22:33;;;;;;;7.38;5.03;;;;;;;8.19;62.93;99962.06;5125185;27;20132;-60
2022/10/15 06:25:08;;;;;;;10.05;5.25;;;;;;;8.26;62.81;99960.19;5125124;27;20594;-59
2022/10/15 06:27:43;;;;;;;11.82;6.43;;;;;;;8.38;62.35;99966.50;5125176;27;20129;-60
2022/10/15 06:30:19;;;;;;;6.13;4.80;;;;;;;8.45;61.30;99961.19;5120436;27;20141;-59
2022/10/15 06:32:56;;;;;;;8.43;6.15;;;;;;;8.50;60.53;99964.03;5142222;27;20137;-59
2022/10/15 06:35:34;;;;;;;10.48;5.28;;;;;;;8.49;60.09;99967.66;5135710;27;20129;-61
2022/10/15 06:38:10;;;;;;;6.28;4.45;;;;;;;8.46;60.54;99972.56;5125136;27;20133;-60
2022/10/15 06:40:45;;;;;;;6.93;4.55;;;;;;;8.46;60.54;99969.94;5016047;28;20607;-60
2022/10/15 06:43:20;;;;;;;8.70;5.38;;;;;;;8.56;59.88;99971.13;5124831;27;20148;-60
2022/10/15 06:45:58;;;;;;;7.70;5.28;;;;;;;8.54;60.25;99962.56;5115128;27;20391;-60
2022/10/15 06:48:33;;;;;;;8.85;5.00;;;;;;;8.58;60.04;99974.34;5124639;27;20136;-59
2022/10/15 06:51:10;;;;;;;8.40;4.95;;;;;;;8.64;60.13;99976.13;5088762;27;20131;-60
2022/10/15 06:53:45;;;;;;;8.05;4.90;;;;;;;8.69;60.44;99964.94;5124493;27;20132;-60
2022/10/15 06:56:20;;;;;;;6.60;5.30;;;;;;;8.62;59.46;99940.41;5111551;27;20133;-60
2022/10/15 06:58:55;;;;;;;9.43;4.80;;;;;;;8.84;59.06;99968.13;5141865;27;20128;-60
2022/10/15 07:01:30;;;;;;;5.68;4.70;;;;;;;8.82;59.38;99969.34;5110247;27;20138;-61
2022/10/15 07:04:05;;;;;;;9.63;5.85;;;;;;;8.80;59.10;99969.56;5125335;27;20132;-61
2022/10/15 07:06:40;;;;;;;7.65;5.15;;;;;;;8.78;58.75;99979.53;5108820;27;20868;-60
2022/10/15 07:09:17;;;;;;;9.63;5.18;;;;;;;8.81;59.28;99979.13;5125276;27;20133;-59
2022/10/15 07:11:52;;;;;;;10.43;5.85;;;;;;;8.85;58.75;99977.69;5107216;27;20137;-59
2022/10/15 07:14:28;;;;;;;8.98;5.53;;;;;;;8.85;59.32;99988.25;5125204;27;20132;-60
2022/10/15 07:17:05;;;;;;;8.18;5.35;;;;;;;8.85;58.94;99984.78;5105532;27;20130;-60
2022/10/15 07:19:40;;;;;;;9.27;5.63;;;;;;;8.87;59.68;99983.56;5125274;27;20137;-60
2022/10/15 07:22:15;;;;;;;11.20;5.35;;;;;;;8.84;59.84;99994.56;5142204;27;20132;-60
2022/10/15 07:24:50;;;;;;;13.20;5.50;;;;;;;8.94;58.86;99988.84;5124683;27;20371;-58
2022/10/15 07:27:25;;;;;;;8.43;5.22;;;;;;;9.04;58.36;99991.00;5125191;27;20137;-59
2022/10/15 07:30:00;;;;;;;8.27;4.82;;;;;;;9.02;58.48;99990.41;5124806;27;20133;-59
2022/10/15 07:32:35;;;;;;;9.40;4.78;;;;;;;8.92;58.79;99998.00;5124696;27;20141;-60
2022/10/15 07:35:10;;;;;;;7.10;4.82;;;;;;;8.95;58.38;99995.72;5125257;27;20469;-59
2022/10/15 07:37:46;;;;;;;9.25;5.00;;;;;;;8.95;58.26;100003.66;5124855;27;20136;-59
2022/10/15 07:40:21;;;;;;;7.60;4.80;;;;;;;8.89;58.27;100001.06;5120296;27;20173;-58
2022/10/15 07:42:58;;;;;;;11.73;4.82;;;;;;;8.84;58.61;100002.47;5124740;27;20133;-60
2022/10/15 07:45:39;;;;;;;5.80;4.47;;;;;;;9.02;58.53;100001.78;5117284;27;20141;-59
2022/10/15 07:48:15;;;;;;;6.15;4.60;;;;;;;9.17;57.64;100006.78;5125116;27;20132;-60
2022/10/15 07:50:58;;;;;;;8.55;4.85;;;;;;;9.26;57.70;100009.97;5115705;27;20130;-60
2022/10/15 07:53:34;;;;;;;7.35;4.63;;;;;;;9.19;58.40;100007.38;5125027;27;20141;-59
2022/10/15 07:56:11;;;;;;;8.88;5.20;;;;;;;9.24;58.10;100012.06;5113143;27;20130;-60
2022/10/15 07:58:50;;;;;;;13.88;6.50;;;;;;;9.20;58.37;100006.34;5124832;27;20133;-57
2022/10/15 08:01:26;;;;;;;8.00;5.15;;;;;;;9.38;57.22;100010.91;5110859;27;20134;-58
2022/10/15 08:04:02;;;;;;;6.72;4.50;;;;;;;9.47;56.85;100014.13;5142474;27;20437;-60
2022/10/15 08:06:37;;;;;;;9.02;4.82;;;;;;;9.58;56.80;100012.63;5109182;27;20133;-59
2022/10/15 08:09:12;;;;;;;9.52;4.57;;;;;;;9.66;56.64;100015.81;5124765;27;20132;-60
2022/10/15 08:11:47;;;;;;;7.00;4.78;;;;;;;9.61;56.45;100012.19;5107635;27;20430;-60
2022/10/15 08:14:25;;;;;;;10.30;5.20;;;;;;;9.47;56.53;100003.53;5125209;27;20132;-61
2022/10/15 08:17:02;;;;;;;6.95;4.75;;;;;;;9.55;55.76;100013.84;5106149;27;20130;-63
2022/10/15 08:19:37;;;;;;;7.88;4.20;;;;;;;9.57;56.00;100008.38;5023759;28;20595;-61
2022/10/15 08:22:13;;;;;;;6.38;4.38;;;;;;;9.69;55.68;100014.56;5124980;27;20139;-61
2022/10/15 08:24:49;;;;;;;10.25;4.65;;;;;;;9.71;55.89;100009.88;5121208;27;20351;-61
2022/10/15 08:27:24;;;;;;;9.40;4.82;;;;;;;9.87;55.61;100022.56;5121248;27;20129;-61
2022/10/15 08:30:05;;;;;;;9.68;4.95;;;;;;;9.93;55.94;100018.25;5121336;27;20498;-62
2022/10/15 08:32:41;;;;;;;10.05;5.13;;;;;;;10.01;55.53;100018.78;5124972;27;20128;-60
2022/10/15 08:35:16;;;;;;;11.40;5.20;;;;;;;10.08;55.17;100012.59;5120837;27;20200;-59
2022/10/15 08:37:55;;;;;;;7.18;5.82;;;;;;;10.13;55.39;100021.50;5124452;27;20128;-61
2022/10/15 08:40:30;;;;;;;18.58;8.98;;;;;;;10.02;55.80;100015.09;5109670;27;20126;-61
2022/10/15 08:43:36;;;;;;;13.65;5.68;;;;;;;10.09;55.22;100017.69;5118405;27;20136;-60
2022/10/15 08:46:17;;;;;;;13.52;6.93;;;;;;;10.05;55.64;100020.97;5101009;27;20415;-60
2022/10/15 08:48:55;;;;;;;8.70;6.03;;;;;;;10.24;55.44;100015.50;5133621;27;20503;-59
2022/10/15 08:51:40;;;;;;;10.18;5.70;;;;;;;10.29;54.96;100009.56;5118651;27;20131;-62
2022/10/15 08:54:17;;;;;;;7.25;4.93;;;;;;;10.39;54.13;100015.16;5121609;27;20534;-60
2022/10/15 08:57:02;;;;;;;10.60;5.93;;;;;;;10.39;54.00;100006.41;5123918;27;20134;-61
2022/10/15 08:59:47;;;;;;;15.68;6.40;;;;;;;10.54;53.18;100008.69;5123991;27;20898;-61
2022/10/15 09:02:48;;;;;;;11.00;6.30;;;;;;;10.66;53.40;100007.72;5125248;27;20141;-61
2022/10/15 09:05:33;;;;;;;13.73;5.82;;;;;;;10.81;53.11;100003.88;5119652;27;20899;-62
2022/10/15 09:08:16;;;;;;;11.43;5.68;;;;;;;10.89;52.66;100001.72;5125262;27;20132;-61
2022/10/15 09:10:56;;;;;;;11.00;4.93;;;;;;;10.95;52.00;100005.31;5116067;27;20142;-61
2022/10/15 09:13:32;;;;;;;11.95;4.97;;;;;;;10.97;52.20;100008.56;5125208;27;20406;-61
2022/10/15 09:16:15;;;;;;;12.52;5.00;;;;;;;10.89;51.88;100011.53;5113411;27;20137;-61
2022/10/15 09:18:52;;;;;;;9.50;5.50;;;;;;;10.87;52.43;100008.28;5104538;27;20134;-61
2022/10/15 09:21:28;;;;;;;12.02;4.88;;;;;;;10.84;52.18;100008.72;5110544;27;20129;-59
2022/10/15 09:24:05;;;;;;;13.95;4.95;;;;;;;10.83;52.44;100005.28;5142595;27;20521;-60
2022/10/15 09:27:30;;;;;;;9.20;4.57;;;;;;;10.92;52.43;100003.13;5108792;27;20129;-61
2022/10/15 09:30:31;;;;;;;12.65;4.80;;;;;;;10.93;52.44;100002.06;5124944;27;20137;-61
2022/10/15 09:33:15;;;;;;;9.23;4.63;;;;;;;10.90;51.99;100005.19;5125162;27;20133;-62
2022/10/15 09:36:08;;;;;;;11.85;5.82;;;;;;;10.75;52.41;100010.06;5132859;27;20133;-60
2022/10/15 09:38:48;;;;;;;14.10;4.88;;;;;;;10.76;52.52;100015.13;5125434;27;20141;-61
2022/10/15 09:41:43;;;;;;;12.02;5.65;;;;;;;10.87;52.97;100011.72;5127942;27;20134;-60
2022/10/15 09:44:24;;;;;;;10.55;5.35;;;;;;;10.88;52.92;100015.19;5125058;27;20556;-64
2022/10/15 09:47:00;;;;;;;9.73;5.70;;;;;;;10.90;53.12;100008.63;5102714;27;20217;-61
2022/10/15 09:49:35;;;;;;;7.28;4.75;;;;;;;11.00;52.56;100009.94;5124961;27;20137;-63
2022/10/15 09:52:19;;;;;;;11.52;5.57;;;;;;;10.71;52.93;99992.97;5104547;27;20145;-60
2022/10/15 09:54:57;;;;;;;9.93;4.78;;;;;;;10.89;53.42;100014.19;5121694;27;20126;-61
2022/10/15 09:57:35;;;;;;;13.73;5.50;;;;;;;10.95;53.21;100017.78;5127282;27;20129;-61
2022/10/15 10:00:13;;;;;;;9.63;5.32;;;;;;;11.04;53.01;100019.09;5121424;27;20598;-61
2022/10/15 10:03:17;;;;;;;11.45;5.15;;;;;;;11.02;52.40;100005.22;5124755;27;20125;-62
2022/10/15 10:06:09;;;;;;;13.95;6.53;;;;;;;10.93;52.12;100011.88;5113759;27;20926;-60
2022/10/15 10:08:59;;;;;;;9.75;5.63;;;;;;;10.98;52.20;100014.69;5124974;27;20129;-62
2022/10/15 10:11:49;;;;;;;9.50;5.15;;;;;;;11.08;51.94;100015.75;5109905;27;20194;-63
2022/10/15 10:14:34;;;;;;;11.35;5.90;;;;;;;11.21;52.38;100008.66;5125177;27;20137;-63
2022/10/15 10:17:20;;;;;;;9.80;4.95;;;;;;;11.32;51.73;100008.69;5109210;28;20051;-63
2022/10/15 10:20:08;;;;;;;10.95;6.00;;;;;;;11.34;52.24;100013.75;5107899;28;20039;-63
2022/10/15 10:22:51;;;;;;;12.55;5.47;;;;;;;11.37;51.70;100015.94;5108997;28;20098;-63
2022/10/15 10:25:26;;;;;;;9.88;5.32;;;;;;;11.37;52.11;100008.00;5108932;28;20036;-62
2022/10/15 10:27:58;;;;;;;13.88;5.80;;;;;;;11.25;52.63;100015.13;5107833;28;20039;-62
2022/10/15 10:30:25;;;;;;;12.95;6.10;;;;;;;11.17;52.25;100002.16;5091689;28;20096;-63
2022/10/15 10:32:57;;;;;;;10.65;5.63;;;;;;;11.21;51.99;100003.34;5108860;28;20185;-62
2022/10/15 10:35:25;;;;;;;18.45;6.57;;;;;;;11.31;51.45;100008.91;5107926;28;20044;-63
2022/10/15 10:37:51;;;;;;;11.95;5.25;;;;;;;11.41;51.42;100006.47;5090541;28;20040;-62
2022/10/15 10:40:19;;;;;;;10.68;5.75;;;;;;;11.40;51.74;100010.19;5108289;28;20039;-61
2022/10/15 10:42:45;;;;;;;11.85;5.90;;;;;;;11.45;51.72;100010.31;5108751;28;20508;-62
2022/10/15 10:45:22;;;;;;;10.95;5.75;;;;;;;11.46;51.76;100003.97;5107605;28;20035;-61
2022/10/15 10:47:48;;;;;;;12.10;5.53;;;;;;;11.41;52.45;100001.19;5108534;28;20427;-62
2022/10/15 10:50:31;;;;;;;15.80;6.18;;;;;;;11.65;51.53;99993.25;5108508;28;20035;-63
2022/10/15 10:53:11;;;;;;;16.38;6.20;;;;;;;11.56;51.98;100006.09;5097756;28;20073;-63
2022/10/15 10:55:38;;;;;;;18.13;6.13;;;;;;;11.70;51.35;100009.31;5086915;28;20141;-62
2022/10/15 10:58:04;;;;;;;12.13;6.05;;;;;;;11.60;51.81;100004.56;5088460;28;20114;-61
2022/10/15 11:00:41;;;;;;;13.60;6.38;;;;;;;11.61;51.71;100011.50;5086956;28;20397;-64
2022/10/15 11:03:35;;;;;;;11.65;6.15;;;;;;;11.55;51.72;100005.25;5087969;28;20036;-61
2022/10/15 11:06:07;;;;;;;11.32;6.65;;;;;;;11.35;52.08;100002.91;5087700;28;20513;-65
2022/10/15 11:08:54;;;;;;;15.43;6.53;;;;;;;11.37;52.32;100005.34;5088242;28;20047;-61
2022/10/15 11:11:37;;;;;;;13.20;6.50;;;;;;;11.21;52.34;100006.00;5087765;28;20089;-62
2022/10/15 11:14:24;;;;;;;12.55;6.40;;;;;;;11.15;53.42;100005.06;5087408;28;20437;-62
2022/10/15 11:17:21;;;;;;;16.95;6.78;;;;;;;11.24;53.46;100008.19;5087911;28;20044;-62
2022/10/15 11:19:57;;;;;;;16.08;6.60;;;;;;;11.46;52.70;100006.63;5087531;28;20514;-60
2022/10/15 11:22:41;;;;;;;15.27;6.80;;;;;;;11.52;52.50;100010.22;5086465;28;20505;-62
2022/10/15 11:25:26;;;;;;;14.30;7.50;;;;;;;11.46;52.49;100009.28;5085832;28;20059;-63
2022/10/15 11:28:02;;;;;;;13.85;7.70;;;;;;;11.34;52.97;100008.44;5072878;28;20036;-61
2022/10/15 11:30:42;;;;;;;15.63;7.60;;;;;;;11.44;52.59;99994.59;5067624;28;20081;-62
2022/10/15 11:33:11;;;;;;;14.40;7.57;;;;;;;11.49;52.43;100010.66;5056004;28;20048;-62
2022/10/15 11:35:49;;;;;;;17.95;7.03;;;;;;;11.45;53.07;99999.72;5074118;28;20612;-61
2022/10/15 11:38:48;;;;;;;11.00;7.43;;;;;;;11.48;53.02;99996.59;5072844;28;20056;-62
2022/10/15 11:41:24;;;;;;;14.18;6.65;;;;;;;11.60;52.52;100000.06;5072566;28;20047;-63
2022/10/15 11:44:01;;;;;;;17.83;7.18;;;;;;;11.67;52.40;99997.28;5056037;28;20119;-62
2022/10/15 11:46:53;;;;;;;12.98;6.88;;;;;;;11.81;52.04;100001.34;5072397;28;20094;-63
2022/10/15 11:49:25;;;;;;;16.38;7.05;;;;;;;11.92;51.54;99989.16;5072670;28;20098;-62
2022/10/15 11:52:03;;;;;;;15.43;7.18;;;;;;;11.84;51.83;99994.78;5072228;28;20041;-62
2022/10/15 11:54:38;;;;;;;14.18;5.95;;;;;;;11.77;52.12;100002.88;5072894;28;20076;-63
2022/10/15 11:57:07;;;;;;;13.65;6.72;;;;;;;11.80;51.97;99994.44;5071991;28;20044;-63
2022/10/15 11:59:39;;;;;;;9.93;6.10;;;;;;;11.78;52.05;99995.69;5072246;28;20498;-63
2022/10/15 12:02:10;;;;;;;15.02;6.40;;;;;;;11.78;52.01;100001.00;5073358;28;20053;-62
2022/10/15 12:04:42;;;;;;;11.52;6.47;;;;;;;11.75;51.84;99994.31;5073408;28;20055;-63
2022/10/15 12:07:14;;;;;;;12.48;6.53;;;;;;;11.67;52.22;99997.28;5085347;28;20032;-63
2022/10/15 12:09:45;;;;;;;11.93;6.57;;;;;;;11.55;52.44;100005.25;5085898;28;20497;-62
2022/10/15 12:12:38;;;;;;;11.80;7.05;;;;;;;11.43;52.88;100001.78;5081602;28;20405;-62
2022/10/15 12:15:10;;;;;;;12.25;6.03;;;;;;;11.35;53.03;99999.44;5082748;28;20059;-62
2022/10/15 12:17:41;;;;;;;11.63;6.18;;;;;;;11.17;53.28;99983.59;5082413;28;20047;-62
2022/10/15 12:20:15;;;;;;;13.50;5.90;;;;;;;11.24;53.52;99994.94;5081859;28;20036;-62
2022/10/15 12:23:00;;;;;;;12.88;6.30;;;;;;;11.19;53.57;99998.25;5092267;28;20188;-62
2022/10/15 12:25:32;;;;;;;10.43;6.20;;;;;;;11.12;53.91;99993.03;5091889;28;20063;-63
2022/10/15 12:28:22;;;;;;;12.90;6.10;;;;;;;11.13;53.77;99996.50;5085180;28;20051;-61